This is the latest recevied weather packets stored in our database for station/object NN5DX-12. If no packets are shown the sender has not sent any weather packets the latest 10 day(s).
| Time | Temp. | Humidity | Pressure | Rain* | Wind** | Luminosity | Snow |
|---|---|---|---|---|---|---|---|
| 1777805116 | 7.78° C | 32% | 1025.4 hPa | 0 mm | - | - | - |
| 1777804816 | 7.22° C | 34% | 1025.5 hPa | 0 mm | - | - | - |
| 1777804516 | 7.22° C | 34% | 1025.6 hPa | 0 mm | - | - | - |
| 1777804216 | 7.22° C | 34% | 1025.6 hPa | 0 mm | - | - | - |
| 1777803915 | 7.22° C | 34% | 1025.6 hPa | 0 mm | - | - | - |
| 1777803616 | 7.22° C | 34% | 1025.7 hPa | 0 mm | - | - | - |
| 1777803316 | 7.22° C | 35% | 1025.6 hPa | 0 mm | - | - | - |
| 1777803016 | 6.67° C | 35% | 1025.7 hPa | 0 mm | - | - | - |
| 1777802715 | 6.67° C | 36% | 1025.8 hPa | 0 mm | - | - | - |
| 1777802416 | 6.67° C | 36% | 1025.2 hPa | 0 mm | - | - | - |
| 1777802116 | 6.11° C | 37% | 1025.2 hPa | 0 mm | - | - | - |
| 1777801815 | 6.11° C | 38% | 1025.3 hPa | 0 mm | - | - | - |
| 1777801516 | 5.56° C | 40% | 1025.4 hPa | 0 mm | - | - | - |
| 1777801216 | 3.89° C | 44% | 1024.3 hPa | 0 mm | - | - | - |
| 1777800916 | 2.78° C | 51% | 1023.8 hPa | 0 mm | - | - | - |
| 1777800618 | 2.78° C | 51% | 1023.9 hPa | 0 mm | - | - | - |
| 1777800318 | 2.78° C | 52% | 1023.4 hPa | 0 mm | - | - | - |
| 1777800017 | 2.78° C | 51% | 1023.5 hPa | 0 mm | - | - | - |
| 1777799717 | 2.78° C | 51% | 1023.6 hPa | 0 mm | - | - | - |
| 1777799417 | 2.78° C | 52% | 1023.8 hPa | 0 mm | - | - | - |
| 1777799118 | 2.78° C | 51% | 1023.8 hPa | 0 mm | - | - | - |
| 1777798818 | 2.78° C | 51% | 1023.8 hPa | 0 mm | - | - | - |
| 1777798517 | 2.78° C | 51% | 1024.4 hPa | 0 mm | - | - | - |
| 1777798217 | 2.78° C | 51% | 1024.5 hPa | 0 mm | - | - | - |
| 1777797918 | 2.78° C | 51% | 1024.5 hPa | 0 mm | - | - | - |
* Rain latest hour (hover to see other rain measurements)
** Current wind speed in m/s (hover to see current wind gust speed)